Pleasantdale, New York
Current Conditions -  °F | °C
As of 9:26 AM on Tuesday 27 Jan 2015 (Local Time) from KALB Reporting Station
Light Snow Light Snow  
Wind Chill:   Ceiling: 2200
Heat Index: 13°   Visibility: 1.7mi
Dew Point:   Wind: 9mph
Humidity: 67%   Direction: 10°N
Pressure: 29.84"   Gusts: NA
Location:  42.8029°N, 73.6379°W
Report Text: KALB 271426Z 01008KT 1 3/4SM -SN OVC022 M11/M16 A2984 RMK AO2 TWR VIS 2 VIS 1 1/2V2 P0000 T11061156
Loading
Personal Weather Stations






























Interactive Weather Map New forecast layout! Learn more

10-Day Weather Forecast

Advertisements
Track Severe Weather on mobile